CDT,Max TemperatureF,Mean TemperatureF,Min TemperatureF,Max Dew PointF,MeanDew PointF,Min DewpointF,Max Humidity, Mean Humidity, Min Humidity, Max Sea Level PressureIn, Mean Sea Level PressureIn, Min Sea Level PressureIn, Max VisibilityMiles, Mean VisibilityMiles, Min VisibilityMiles, Max Wind SpeedMPH, Mean Wind SpeedMPH, Max Gust SpeedMPH,PrecipitationIn, CloudCover, Events, WindDirDegrees
2013-10-1,73,60,47,52,42,32,86,55,24,30.00,29.92,29.70,10,8,1,18,7,24,0.00,0,,55
2013-10-2,80,64,48,63,53,45,93,73,52,29.94,29.85,29.77,10,10,8,18,5,25,0.00,1,,172
2013-10-3,59,55,50,59,54,46,100,86,72,29.84,29.79,29.73,10,6,0,18,10,24,0.01,8,Fog-Rain,37
2013-10-4,73,55,37,64,51,29,100,81,61,29.90,29.71,29.57,10,6,0,33,17,45,0.00,6,Fog,37
2013-10-5,41,39,36,37,31,27,100,82,64,29.99,29.94,29.89,10,10,7,35,25,47,0.02,8,Rain,300
2013-10-6,63,50,37,39,34,25,100,64,27,30.13,30.02,29.94,10,10,9,30,16,39,0.05,4,Rain,326
2013-10-7,76,56,35,44,39,33,92,60,27,30.10,30.01,29.89,10,10,10,16,6,23,0.00,0,,204
2013-10-8,79,64,48,44,41,39,71,48,25,29.88,29.79,29.71,10,10,10,24,15,32,0.00,0,,177
2013-10-9,74,57,40,49,45,41,92,65,38,29.88,29.83,29.77,10,10,10,18,7,26,0.00,0,,142
2013-10-10,77,63,49,57,51,47,89,66,43,29.86,29.73,29.56,10,10,8,35,15,47,0.27,2,Rain-Thunderstorm,161
2013-10-11,61,53,45,56,47,38,89,70,51,29.96,29.65,29.46,10,9,2,33,17,43,0.01,3,Rain-Thunderstorm,228
2013-10-12,61,49,37,41,35,30,92,62,32,30.28,30.16,29.97,10,9,2,14,6,22,0.00,1,,310
2013-10-13,65,49,33,46,35,30,100,64,28,30.38,30.26,30.17,10,9,2,28,12,37,0.34,3,Rain-Thunderstorm,137
2013-10-14,62,52,41,58,49,36,100,90,79,30.17,29.84,29.62,10,8,1,31,15,40,0.73,8,Rain-Thunderstorm,138
2013-10-15,44,39,34,35,33,32,89,77,65,30.21,30.10,29.92,10,10,10,35,21,61,0.00,8,,317
2013-10-16,55,44,32,35,31,26,92,64,35,30.19,30.08,29.97,10,10,10,35,6,38,0.00,1,,284
2013-10-17,47,36,25,37,31,24,92,73,53,30.17,30.05,29.93,10,10,10,25,12,35,0.00,2,,330
2013-10-18,51,38,24,29,26,23,92,66,39,30.20,30.13,30.06,10,10,9,16,6,18,0.00,2,,305
2013-10-19,63,46,28,36,31,26,92,61,30,30.04,29.91,29.81,10,10,10,20,7,34,0.00,1,,282
2013-10-20,59,44,29,38,33,26,85,61,37,30.09,29.89,29.75,10,10,10,25,10,33,T,4,,333
2013-10-21,60,43,25,41,33,24,92,62,31,30.11,30.04,29.95,10,10,10,23,7,32,T,4,,291
2013-10-22,57,47,37,41,37,33,92,66,40,30.13,30.04,29.96,10,10,10,23,10,30,T,4,,331
2013-10-23,63,50,36,41,36,34,92,66,39,30.23,30.11,30.02,10,10,10,24,9,29,0.00,3,,309
2013-10-24,44,38,32,35,32,30,92,81,70,30.43,30.36,30.27,10,10,0,12,4,20,0.00,8,Snow,9
2013-10-25,59,47,35,39,35,29,92,68,44,30.36,30.21,30.05,10,10,10,25,10,36,0.00,1,,210
2013-10-26,57,42,26,39,29,19,92,58,23,30.31,30.20,30.07,10,10,8,21,9,28,0.00,0,,346
2013-10-27,73,50,26,40,34,24,92,59,26,30.12,29.91,29.79,10,9,2,21,5,25,0.00,0,,77
2013-10-28,47,40,33,36,33,30,92,76,60,30.20,30.12,29.96,10,10,9,31,14,39,0.01,4,Rain,47
2013-10-29,37,35,32,37,35,33,100,96,92,30.13,30.06,29.95,7,3,1,16,10,22,0.11,8,Rain,12
2013-10-30,47,37,26,39,32,27,100,88,76,30.06,29.88,29.76,10,6,0,16,4,18,0.03,5,Fog-Thunderstorm,334
2013-10-31,57,41,24,38,30,25,100,67,33,29.79,29.70,29.59,10,6,0,29,12,36,0.00,1,Fog,307